createdAt,value
2016-10-29T00:00:53.109Z,14.89
2016-10-29T00:02:03.457Z,14.85
2016-10-29T00:03:13.753Z,14.87
2016-10-29T00:04:22.817Z,14.87
2016-10-29T00:05:32.506Z,14.9
2016-10-29T00:06:42.498Z,14.87
2016-10-29T00:07:52.778Z,14.89
2016-10-29T00:09:03.076Z,14.87
2016-10-29T00:10:13.363Z,14.89
2016-10-29T00:11:23.662Z,14.94
2016-10-29T00:12:33.669Z,14.9
2016-10-29T00:13:43.670Z,14.89
2016-10-29T00:14:53.658Z,14.85
2016-10-29T00:16:03.343Z,14.97
2016-10-29T00:17:13.354Z,14.89
2016-10-29T00:18:23.672Z,14.97
2016-10-29T00:19:33.341Z,15.04
2016-10-29T00:20:43.333Z,15.01
2016-10-29T00:21:53.373Z,14.97
2016-10-29T00:23:03.677Z,15.01
2016-10-29T00:24:13.363Z,14.95
2016-10-29T00:25:23.372Z,14.98
2016-10-29T00:26:33.063Z,15.01
2016-10-29T00:27:42.783Z,15.01
2016-10-29T00:28:53.109Z,15.05
2016-10-29T00:30:03.105Z,15.01
2016-10-29T00:31:13.431Z,15.04
2016-10-29T00:32:23.421Z,15.01
2016-10-29T00:33:33.431Z,15.04
2016-10-29T00:34:43.775Z,15.02
2016-10-29T00:35:54.086Z,14.98
2016-10-29T00:37:04.394Z,14.94
2016-10-29T00:38:14.693Z,15.01
2016-10-29T00:39:24.070Z,15
2016-10-29T00:40:34.103Z,14.98
2016-10-29T00:41:44.090Z,15
2016-10-29T00:42:54.396Z,15.01
2016-10-29T00:44:04.383Z,15.01
2016-10-29T00:45:14.729Z,15.01
2016-10-29T00:46:25.031Z,15.01
2016-10-29T00:47:35.327Z,15.07
2016-10-29T00:48:45.640Z,15.07
2016-10-29T00:49:55.932Z,14.98
2016-10-29T00:51:05.637Z,15.04
2016-10-29T00:52:15.344Z,15
2016-10-29T00:53:25.641Z,14.98
2016-10-29T00:54:35.637Z,14.98
2016-10-29T00:55:45.957Z,15.08
2016-10-29T00:56:56.251Z,15.12
2016-10-29T00:58:06.246Z,15.01
2016-10-29T00:59:16.588Z,14.98
2016-10-29T01:00:26.610Z,15.02
2016-10-29T01:01:36.907Z,14.98
2016-10-29T01:02:46.901Z,14.94
2016-10-29T01:03:57.206Z,14.86
2016-10-29T01:05:07.254Z,15.01
2016-10-29T01:06:17.270Z,14.9
2016-10-29T01:07:27.586Z,14.87
2016-10-29T01:08:37.268Z,14.93
2016-10-29T01:09:47.613Z,14.93
2016-10-29T01:10:57.596Z,14.9
2016-10-29T01:12:07.905Z,14.87
2016-10-29T01:13:18.221Z,14.9
2016-10-29T01:14:27.894Z,14.93
2016-10-29T01:15:38.102Z,14.89
2016-10-29T01:16:48.400Z,14.93
2016-10-29T01:17:58.684Z,14.89
2016-10-29T01:19:08.995Z,14.87
2016-10-29T01:20:19.313Z,14.93
2016-10-29T01:21:29.617Z,14.89
2016-10-29T01:22:39.645Z,14.9
2016-10-29T01:23:49.945Z,14.9
2016-10-29T01:25:00.232Z,14.86
2016-10-29T01:26:10.546Z,14.89
2016-10-29T01:27:20.850Z,14.93
2016-10-29T01:28:30.832Z,14.94
2016-10-29T01:29:40.537Z,14.83
2016-10-29T01:30:50.821Z,14.87
2016-10-29T01:32:00.534Z,14.93
2016-10-29T01:33:10.538Z,14.94
2016-10-29T01:34:20.827Z,14.86
2016-10-29T01:35:30.806Z,14.9
2016-10-29T01:36:41.102Z,14.86
2016-10-29T01:37:51.414Z,14.9
2016-10-29T01:39:01.713Z,14.79
2016-10-29T01:40:11.707Z,14.85
2016-10-29T01:41:21.375Z,14.83
2016-10-29T01:42:31.377Z,14.87
2016-10-29T01:43:41.358Z,14.85
2016-10-29T01:44:51.655Z,14.9
2016-10-29T01:46:01.033Z,14.85
2016-10-29T01:47:11.329Z,14.86
2016-10-29T01:48:21.617Z,14.87
2016-10-29T01:49:31.287Z,14.9
2016-10-29T01:50:41.593Z,14.89
2016-10-29T01:51:51.273Z,14.93
2016-10-29T01:53:01.277Z,14.9
2016-10-29T01:54:11.298Z,14.75
2016-10-29T01:55:20.984Z,14.77
2016-10-29T01:56:30.996Z,14.86
2016-10-29T01:57:41.294Z,14.86
2016-10-29T01:58:51.630Z,14.71
2016-10-29T02:00:01.616Z,14.86
2016-10-29T02:01:11.954Z,14.83
2016-10-29T02:02:22.277Z,14.86
2016-10-29T02:03:32.265Z,14.86
2016-10-29T02:04:42.265Z,14.82
2016-10-29T02:05:52.250Z,14.85
2016-10-29T02:07:02.233Z,14.8
2016-10-29T02:08:12.230Z,14.75
2016-10-29T02:09:22.232Z,14.8
2016-10-29T02:10:32.551Z,14.77
2016-10-29T02:11:42.558Z,14.82
2016-10-29T02:12:52.591Z,14.79
2016-10-29T02:14:02.879Z,14.74
2016-10-29T02:15:13.175Z,14.67
2016-10-29T02:16:23.161Z,14.79
2016-10-29T02:17:33.472Z,14.74
2016-10-29T02:18:43.467Z,14.7
2016-10-29T02:19:53.163Z,14.74
2016-10-29T02:21:02.855Z,14.79
2016-10-29T02:22:13.175Z,14.79
2016-10-29T02:23:23.487Z,14.79
2016-10-29T02:24:33.779Z,14.85
2016-10-29T02:25:44.080Z,14.79
2016-10-29T02:26:54.394Z,14.83
2016-10-29T02:28:04.706Z,14.9
2016-10-29T02:29:15.028Z,14.87
2016-10-29T02:30:25.041Z,14.89
2016-10-29T02:31:35.016Z,14.89
2016-10-29T02:32:45.316Z,14.86
2016-10-29T02:33:55.622Z,14.93
2016-10-29T02:35:05.959Z,14.94
2016-10-29T02:36:16.261Z,14.85
2016-10-29T02:37:25.945Z,14.97
2016-10-29T02:38:36.242Z,15.04
2016-10-29T02:39:46.559Z,14.98
2016-10-29T02:40:56.547Z,14.97
2016-10-29T02:42:06.538Z,15.04
2016-10-29T02:43:16.864Z,15.12
2016-10-29T02:44:27.167Z,15.01
2016-10-29T02:45:37.469Z,14.97
2016-10-29T02:46:47.757Z,15
2016-10-29T02:47:58.057Z,15.07
2016-10-29T02:49:08.092Z,15.1
2016-10-29T02:50:18.071Z,15.01
2016-10-29T02:51:28.077Z,15.02
2016-10-29T02:52:38.424Z,15.01
2016-10-29T02:53:48.717Z,14.98
2016-10-29T02:54:59.065Z,15.08
2016-10-29T02:56:09.065Z,15.04
2016-10-29T02:57:18.748Z,15.1
2016-10-29T02:58:29.055Z,15.01
2016-10-29T02:59:38.736Z,15.1
2016-10-29T03:00:48.394Z,15.12
2016-10-29T03:32:10.717Z,12.13
2016-10-29T03:33:20.998Z,12.1
2016-10-29T03:34:31.297Z,12.1
2016-10-29T03:35:41.312Z,12.2
2016-10-29T03:36:51.291Z,12.2
2016-10-29T03:38:01.286Z,12.36
2016-10-29T03:39:11.583Z,12.44
2016-10-29T03:40:22.015Z,12.58
2016-10-29T03:41:32.357Z,12.71
2016-10-29T03:42:42.663Z,12.84
2016-10-29T03:43:52.949Z,13.01
2016-10-29T03:45:02.928Z,13.17
2016-10-29T03:46:12.936Z,13.29
2016-10-29T03:47:23.227Z,13.48
2016-10-29T03:48:33.209Z,13.65
2016-10-29T03:49:42.589Z,13.62
2016-10-29T03:50:52.912Z,13.73
2016-10-29T03:52:02.649Z,13.84
2016-10-29T03:53:12.962Z,13.87
2016-10-29T03:54:23.259Z,13.95
2016-10-29T03:55:33.569Z,14.03
2016-10-29T03:56:43.596Z,14.2
2016-10-29T03:57:53.895Z,14.23
2016-10-29T03:59:03.563Z,14.19
2016-10-29T04:00:13.885Z,14.26
2016-10-29T04:01:23.877Z,14.36
2016-10-29T04:02:34.174Z,14.45
2016-10-29T04:03:44.180Z,14.49
2016-10-29T04:04:54.171Z,14.48
2016-10-29T04:06:03.855Z,14.48
2016-10-29T04:07:14.148Z,14.51
2016-10-29T04:08:24.462Z,14.67
2016-10-29T04:09:34.448Z,14.6
2016-10-29T04:10:44.490Z,14.56
2016-10-29T04:11:53.901Z,14.66
2016-10-29T04:13:04.205Z,14.59
2016-10-29T04:14:14.190Z,14.7
2016-10-29T04:15:24.180Z,14.74
2016-10-29T04:16:34.183Z,14.77
2016-10-29T04:17:44.511Z,14.71
2016-10-29T04:18:54.800Z,14.74
2016-10-29T04:20:05.134Z,14.66
2016-10-29T04:21:15.444Z,14.63
2016-10-29T04:22:25.470Z,14.64
2016-10-29T04:23:35.779Z,14.61
2016-10-29T04:24:46.093Z,14.71
2016-10-29T04:25:56.395Z,14.64
2016-10-29T04:27:06.685Z,14.63
2016-10-29T04:28:16.983Z,14.71
2016-10-29T04:29:27.318Z,14.67
2016-10-29T04:30:37.620Z,14.66
2016-10-29T04:31:47.921Z,14.63
2016-10-29T04:32:57.604Z,14.63
2016-10-29T04:34:07.914Z,14.63
2016-10-29T04:35:18.191Z,14.74
2016-10-29T04:36:28.489Z,14.6
2016-10-29T04:37:38.789Z,14.64
2016-10-29T04:38:48.777Z,14.67
2016-10-29T04:39:59.098Z,14.66
2016-10-29T04:41:09.098Z,14.66
2016-10-29T04:42:19.402Z,14.66
2016-10-29T04:43:29.695Z,14.7
2016-10-29T04:44:39.993Z,14.64
2016-10-29T04:45:49.991Z,14.7
2016-10-29T04:47:00.283Z,14.74
2016-10-29T04:48:10.278Z,14.79
2016-10-29T04:49:19.984Z,14.75
2016-10-29T04:50:29.971Z,14.66
2016-10-29T04:51:40.280Z,14.64
2016-10-29T04:52:50.607Z,14.7
2016-10-29T04:54:00.604Z,14.74
2016-10-29T04:55:10.957Z,14.7
2016-10-29T04:56:20.631Z,14.67
2016-10-29T04:57:30.942Z,14.61
2016-10-29T04:58:41.270Z,14.66
2016-10-29T04:59:51.574Z,14.71
2016-10-29T05:01:01.637Z,14.69
2016-10-29T05:02:11.950Z,14.67
2016-10-29T05:03:21.932Z,14.67
2016-10-29T05:04:32.282Z,14.71
2016-10-29T05:05:42.588Z,14.83
2016-10-29T05:06:52.259Z,14.85
2016-10-29T05:08:02.252Z,14.82
2016-10-29T05:09:12.554Z,14.77
2016-10-29T05:10:22.882Z,14.79
2016-10-29T05:11:32.612Z,14.77
2016-10-29T05:12:42.920Z,14.67
2016-10-29T05:13:53.212Z,14.74
2016-10-29T05:15:03.503Z,14.75
2016-10-29T05:16:13.495Z,14.66
2016-10-29T05:17:23.485Z,14.66
2016-10-29T05:18:33.775Z,14.66
2016-10-29T05:19:44.076Z,14.7
2016-10-29T05:20:53.781Z,14.67
2016-10-29T05:22:03.766Z,14.66
2016-10-29T05:23:13.757Z,14.66
2016-10-29T05:24:24.047Z,14.66
2016-10-29T05:25:34.079Z,14.71
2016-10-29T05:26:44.382Z,14.74
2016-10-29T05:27:54.399Z,14.69
2016-10-29T05:29:04.700Z,14.63
2016-10-29T05:30:15.006Z,14.7
2016-10-29T05:31:25.300Z,14.69
2016-10-29T05:32:35.618Z,14.7
2016-10-29T05:33:45.906Z,14.63
2016-10-29T05:34:56.216Z,14.63
2016-10-29T05:36:06.187Z,14.69
2016-10-29T05:37:16.495Z,14.66
2016-10-29T05:38:26.790Z,14.7
2016-10-29T05:39:37.080Z,14.7
2016-10-29T05:40:47.391Z,14.64
2016-10-29T05:41:57.681Z,14.64
2016-10-29T05:43:07.682Z,14.67
2016-10-29T05:44:17.985Z,14.74
2016-10-29T05:45:28.335Z,14.74
2016-10-29T05:46:38.021Z,14.79
2016-10-29T05:47:48.050Z,14.83
2016-10-29T05:48:58.353Z,14.8
2016-10-29T05:50:08.664Z,14.79
2016-10-29T05:51:18.654Z,14.83
2016-10-29T05:52:29.030Z,14.79
2016-10-29T05:53:39.342Z,14.74
2016-10-29T05:54:49.644Z,14.86
2016-10-29T05:55:59.622Z,14.9
2016-10-29T05:57:09.622Z,14.9
2016-10-29T05:58:19.625Z,14.93
2016-10-29T05:59:29.927Z,14.86
2016-10-29T06:00:40.236Z,14.87
2016-10-29T06:01:50.556Z,14.98
2016-10-29T06:03:00.853Z,14.89
2016-10-29T06:04:11.174Z,14.89
2016-10-29T06:05:21.471Z,14.94
2016-10-29T06:06:31.798Z,14.86
2016-10-29T06:07:41.778Z,14.87
2016-10-29T06:08:51.771Z,14.97
2016-10-29T06:10:02.063Z,14.89
2016-10-29T06:11:12.444Z,14.9
2016-10-29T06:12:22.430Z,14.94
2016-10-29T06:13:32.712Z,14.86
2016-10-29T06:14:43.017Z,14.97
2016-10-29T06:15:53.306Z,14.93
2016-10-29T06:17:03.335Z,14.98
2016-10-29T06:18:13.659Z,15.04
2016-10-29T06:19:23.642Z,15
2016-10-29T06:20:33.624Z,15
2016-10-29T06:21:43.630Z,15.01
2016-10-29T06:22:53.921Z,15.05
2016-10-29T06:24:04.203Z,15.02
2016-10-29T06:25:14.495Z,15.01
2016-10-29T06:26:24.796Z,15.07
2016-10-29T06:27:35.088Z,15.08
2016-10-29T06:28:45.385Z,15.05
2016-10-29T06:29:55.673Z,15.08
2016-10-29T06:31:05.961Z,15.01
2016-10-29T06:32:15.635Z,15.04
2016-10-29T06:33:26.176Z,15.07
2016-10-29T06:34:36.169Z,15.12
2016-10-29T06:35:46.471Z,15.22
2016-10-29T06:36:56.792Z,15.27
2016-10-29T06:38:06.794Z,15.26
2016-10-29T06:39:17.097Z,15.27
2016-10-29T06:40:27.406Z,15.3
2016-10-29T06:41:37.099Z,15.38
2016-10-29T06:42:47.389Z,15.34
2016-10-29T06:43:57.424Z,15.47
2016-10-29T06:45:07.418Z,15.41
2016-10-29T06:46:17.725Z,15.41
2016-10-29T06:47:27.413Z,15.41
2016-10-29T06:48:37.400Z,15.45
2016-10-29T06:49:47.686Z,15.35
2016-10-29T06:50:57.667Z,15.34
2016-10-29T06:52:07.973Z,15.37
2016-10-29T06:53:18.291Z,15.35
2016-10-29T06:54:28.592Z,15.33
2016-10-29T06:55:38.904Z,15.3
2016-10-29T06:56:48.887Z,15.26
2016-10-29T06:57:58.923Z,15.27
2016-10-29T06:59:08.607Z,15.31
2016-10-29T07:00:18.906Z,15.22
2016-10-29T07:01:28.898Z,15.19
2016-10-29T07:02:39.428Z,15.22
2016-10-29T07:03:49.735Z,15.23
2016-10-29T07:05:00.040Z,15.31
2016-10-29T07:06:10.366Z,15.33
2016-10-29T07:07:20.384Z,15.31
2016-10-29T07:08:30.702Z,15.34
2016-10-29T07:09:40.730Z,15.35
2016-10-29T07:10:51.035Z,15.44
2016-10-29T07:12:01.094Z,15.52
2016-10-29T07:13:11.388Z,15.56
2016-10-29T07:14:21.692Z,15.65
2016-10-29T07:15:31.684Z,15.68
2016-10-29T07:16:41.967Z,15.65
2016-10-29T07:17:52.268Z,15.62
2016-10-29T07:19:02.573Z,15.67
2016-10-29T07:20:12.607Z,15.65
2016-10-29T07:21:22.594Z,15.73
2016-10-29T07:22:32.579Z,15.91
2016-10-29T07:23:42.558Z,15.96
2016-10-29T07:24:52.556Z,16.02
2016-10-29T07:26:02.897Z,16.13
2016-10-29T07:27:13.259Z,16.1
2016-10-29T07:28:23.249Z,16.25
2016-10-29T07:29:33.242Z,16.29
2016-10-29T07:30:43.550Z,16.34
2016-10-29T07:31:53.542Z,16.33
2016-10-29T07:33:03.552Z,16.42
2016-10-29T07:34:13.896Z,16.4
2016-10-29T07:35:23.914Z,16.47
2016-10-29T07:36:34.222Z,16.44
2016-10-29T07:37:44.531Z,16.32
2016-10-29T07:38:54.513Z,16.4
2016-10-29T07:40:04.576Z,16.36
2016-10-29T07:41:15.126Z,16.32
2016-10-29T07:42:25.118Z,16.34
2016-10-29T07:43:35.440Z,16.29
2016-10-29T07:44:45.752Z,16.25
2016-10-29T07:45:56.058Z,16.27
2016-10-29T07:47:06.377Z,16.26
2016-10-29T07:48:16.676Z,16.36
2016-10-29T07:49:26.710Z,16.39
2016-10-29T07:50:36.697Z,16.33
2016-10-29T07:51:46.995Z,16.37
2016-10-29T07:52:57.010Z,16.37
2016-10-29T07:54:07.354Z,16.47
2016-10-29T07:55:17.728Z,16.55
2016-10-29T07:56:28.067Z,16.57
2016-10-29T07:57:38.063Z,16.65
2016-10-29T07:58:48.072Z,16.57
2016-10-29T07:59:58.088Z,16.57
2016-10-29T08:01:08.430Z,16.62
2016-10-29T08:02:18.730Z,16.65
2016-10-29T08:03:28.719Z,16.72
2016-10-29T08:04:38.827Z,16.76
2016-10-29T08:05:49.133Z,16.88
2016-10-29T08:06:59.119Z,16.99
2016-10-29T08:08:09.130Z,17.12
2016-10-29T08:09:19.427Z,17.2
2016-10-29T08:10:29.740Z,17.39
2016-10-29T08:11:40.043Z,17.28
2016-10-29T08:12:50.338Z,17.4
2016-10-29T08:14:00.649Z,17.5
2016-10-29T08:15:10.946Z,17.55
2016-10-29T08:16:21.258Z,17.63
2016-10-29T08:17:31.309Z,17.79
2016-10-29T08:18:41.609Z,17.87
2016-10-29T08:19:51.913Z,17.96
2016-10-29T08:21:02.248Z,18.01
2016-10-29T08:22:12.248Z,18.11
2016-10-29T08:23:22.596Z,18.2
2016-10-29T08:24:32.910Z,18.2
2016-10-29T08:25:43.257Z,18.16
2016-10-29T08:26:52.956Z,18.13
2016-10-29T08:28:03.253Z,18.26
2016-10-29T08:29:13.256Z,18.19
2016-10-29T08:30:23.577Z,18.19
2016-10-29T08:31:33.895Z,18.19
2016-10-29T08:32:44.232Z,18.17
2016-10-29T08:33:54.217Z,18.16
2016-10-29T08:35:03.595Z,18.21
2016-10-29T08:36:13.996Z,18.17
2016-10-29T08:37:24.057Z,18.11
2016-10-29T08:38:34.380Z,18.14
2016-10-29T08:39:44.735Z,18.11
2016-10-29T08:40:55.257Z,18.17
2016-10-29T08:42:05.261Z,18.31
2016-10-29T08:43:15.561Z,18.42
2016-10-29T08:44:25.902Z,18.5
2016-10-29T08:45:36.218Z,18.54
2016-10-29T08:46:46.220Z,18.65
2016-10-29T08:47:56.574Z,18.6
2016-10-29T08:49:06.574Z,18.59
2016-10-29T08:50:16.874Z,18.61
2016-10-29T08:51:27.189Z,18.72
2016-10-29T08:52:37.197Z,18.76
2016-10-29T08:53:47.736Z,18.86
2016-10-29T08:54:58.043Z,18.86
2016-10-29T08:56:08.384Z,18.87
2016-10-29T08:57:18.395Z,18.87
2016-10-29T08:58:28.712Z,18.91
2016-10-29T08:59:39.061Z,18.93
2016-10-29T09:00:49.066Z,18.93
2016-10-29T09:01:59.373Z,18.97
2016-10-29T09:03:09.725Z,18.96
2016-10-29T09:04:20.037Z,19.1
2016-10-29T09:05:30.346Z,19.17
2016-10-29T09:06:40.333Z,19.24
2016-10-29T09:07:50.628Z,19.37
2016-10-29T09:09:00.665Z,19.35
2016-10-29T09:10:10.968Z,19.42
2016-10-29T09:11:21.268Z,19.45
2016-10-29T09:12:31.268Z,19.32
2016-10-29T09:13:41.604Z,19.38
2016-10-29T09:14:51.825Z,19.3
2016-10-29T09:16:01.847Z,19.45
2016-10-29T09:17:11.861Z,19.53
2016-10-29T09:18:21.868Z,19.49
2016-10-29T09:19:32.184Z,19.55
2016-10-29T09:20:42.182Z,19.5
2016-10-29T09:21:52.196Z,19.61
2016-10-29T09:23:02.548Z,19.63
2016-10-29T09:24:12.878Z,19.74
2016-10-29T09:25:23.199Z,19.82
2016-10-29T09:26:33.531Z,19.85
2016-10-29T09:27:43.219Z,19.79
2016-10-29T09:28:53.223Z,19.89
2016-10-29T09:30:03.216Z,19.93
2016-10-29T09:31:13.229Z,19.9
2016-10-29T09:32:23.244Z,20
2016-10-29T09:33:33.271Z,20.05
2016-10-29T09:34:43.574Z,19.97
2016-10-29T09:35:53.581Z,20.16
2016-10-29T09:37:03.592Z,20.16
2016-10-29T09:38:13.918Z,20.16
2016-10-29T09:39:24.246Z,20.19
2016-10-29T09:40:34.560Z,20.19
2016-10-29T09:41:44.915Z,20.27
2016-10-29T09:42:54.931Z,20.25
2016-10-29T09:44:05.230Z,20.25
2016-10-29T09:45:15.227Z,20.29
2016-10-29T09:46:25.545Z,20.26
2016-10-29T09:47:35.857Z,20.37
2016-10-29T09:48:45.860Z,20.29
2016-10-29T09:49:56.164Z,20.38
2016-10-29T09:51:06.163Z,20.4
2016-10-29T09:52:16.212Z,20.53
2016-10-29T09:53:26.518Z,20.53
2016-10-29T09:54:36.516Z,20.56
2016-10-29T09:55:46.817Z,20.46
2016-10-29T09:56:57.138Z,20.46
2016-10-29T09:58:07.132Z,20.54
2016-10-29T09:59:16.841Z,20.74
2016-10-29T10:00:27.144Z,20.72
2016-10-29T10:01:37.498Z,20.82
2016-10-29T10:02:47.811Z,20.74
2016-10-29T10:03:58.104Z,20.64
2016-10-29T10:05:08.413Z,20.64
2016-10-29T10:06:18.725Z,20.54
2016-10-29T10:07:29.036Z,20.49
2016-10-29T10:08:39.372Z,20.34
2016-10-29T10:09:49.352Z,20.34
2016-10-29T10:10:59.364Z,20.2
2016-10-29T10:12:09.352Z,20.18
2016-10-29T10:13:19.338Z,20.11
2016-10-29T10:14:29.635Z,20.08
2016-10-29T10:15:39.625Z,20
2016-10-29T10:16:49.928Z,19.98
2016-10-29T10:17:59.931Z,19.98
2016-10-29T10:19:09.635Z,19.95
2016-10-29T10:20:19.943Z,19.79
2016-10-29T10:21:30.244Z,19.63
2016-10-29T10:22:40.255Z,19.57
2016-10-29T10:23:50.608Z,19.5
2016-10-29T10:25:00.609Z,19.64
2016-10-29T10:26:10.285Z,19.61
2016-10-29T10:27:20.631Z,19.74
2016-10-29T10:28:30.946Z,19.83
2016-10-29T10:29:41.267Z,19.75
2016-10-29T10:30:50.336Z,19.78
2016-10-29T10:32:00.667Z,19.63
2016-10-29T10:33:10.981Z,19.6
2016-10-29T10:34:20.975Z,19.61
2016-10-29T10:35:31.295Z,19.65
2016-10-29T10:36:41.606Z,19.79
2016-10-29T10:37:51.294Z,19.97
2016-10-29T10:39:01.276Z,20.07
2016-10-29T10:40:11.587Z,20.29
2016-10-29T10:41:21.890Z,20.38
2016-10-29T10:42:32.199Z,20.42
2016-10-29T10:43:42.204Z,20.48
2016-10-29T10:44:52.536Z,20.34
2016-10-29T10:46:02.595Z,20.34
2016-10-29T10:47:12.677Z,20.42
2016-10-29T10:48:22.671Z,20.27
2016-10-29T10:49:32.807Z,20.22
2016-10-29T10:50:43.131Z,20.02
2016-10-29T10:51:52.831Z,19.63
2016-10-29T10:53:02.837Z,19.24
2016-10-29T10:54:13.147Z,18.79
2016-10-29T10:55:23.174Z,18.54
2016-10-29T10:56:33.156Z,18.23
2016-10-29T10:57:43.543Z,18.14
2016-10-29T10:58:53.901Z,17.92
2016-10-29T11:00:04.246Z,17.87
2016-10-29T11:01:14.582Z,17.63
2016-10-29T11:02:25.029Z,17.5
2016-10-29T11:03:35.042Z,17.28
2016-10-29T11:04:45.356Z,17.2
2016-10-29T11:05:55.719Z,17.2
2016-10-29T11:07:06.046Z,17.09
2016-10-29T11:08:16.102Z,17.07
2016-10-29T11:09:25.480Z,16.97
2016-10-29T11:10:35.583Z,17.02
2016-10-29T11:11:45.563Z,16.92
2016-10-29T11:12:55.570Z,17
2016-10-29T11:14:05.581Z,16.82
2016-10-29T11:15:15.626Z,16.88
2016-10-29T11:16:25.642Z,16.92
2016-10-29T11:17:35.679Z,16.85
2016-10-29T11:18:46.000Z,16.95
2016-10-29T11:19:55.741Z,17.1
2016-10-29T11:21:05.447Z,17.1
2016-10-29T11:22:15.812Z,17.1
2016-10-29T11:23:26.106Z,17.15
2016-10-29T11:24:36.101Z,17.27
2016-10-29T11:25:46.188Z,17.17
2016-10-29T11:26:56.200Z,17.31
2016-10-29T11:28:05.881Z,17.45
2016-10-29T11:29:15.951Z,17.57
2016-10-29T11:30:25.952Z,17.69
2016-10-29T11:31:36.255Z,17.74
2016-10-29T11:32:46.539Z,17.95
2016-10-29T11:33:56.860Z,18.14
2016-10-29T11:35:07.166Z,18.17
2016-10-29T11:36:17.519Z,18.23
2016-10-29T11:37:27.531Z,18.32
2016-10-29T11:38:37.840Z,18.41
2016-10-29T11:39:47.951Z,18.38
2016-10-29T11:40:58.282Z,18.54
2016-10-29T11:42:08.292Z,18.49
2016-10-29T11:43:18.014Z,18.47
2016-10-29T11:44:28.333Z,18.45
2016-10-29T11:45:38.648Z,18.45
2016-10-29T11:46:48.955Z,18.34
2016-10-29T11:47:58.941Z,18.31
2016-10-29T11:49:09.243Z,18.16
2016-10-29T11:50:19.554Z,18.13
2016-10-29T11:51:29.546Z,18.17
2016-10-29T11:52:39.858Z,18.05
2016-10-29T11:53:50.152Z,18.06
2016-10-29T11:55:00.152Z,18.03
2016-10-29T11:56:10.473Z,17.99
2016-10-29T11:57:20.824Z,17.99
2016-10-29T11:58:31.133Z,18.03
2016-10-29T11:59:41.133Z,18.06
2016-10-29T12:00:51.172Z,18.03
2016-10-29T12:02:01.478Z,18.11
2016-10-29T12:03:11.469Z,18.08
2016-10-29T12:04:21.175Z,18.02
2016-10-29T12:05:31.531Z,17.94
2016-10-29T12:06:41.828Z,17.95
2016-10-29T12:07:51.826Z,18.06
2016-10-29T12:09:02.147Z,18.17
2016-10-29T12:10:12.433Z,18.19
2016-10-29T12:11:22.405Z,18.2
2016-10-29T12:12:32.389Z,18.23
2016-10-29T12:13:42.388Z,18.24
2016-10-29T12:14:52.694Z,18.41
2016-10-29T12:16:03.011Z,18.36
2016-10-29T12:17:12.995Z,18.29
2016-10-29T12:18:22.985Z,18.27
2016-10-29T12:19:33.278Z,18.21
2016-10-29T12:20:43.579Z,18.17
2016-10-29T12:21:53.910Z,18.27
2016-10-29T12:23:04.223Z,18.69
2016-10-29T12:24:14.508Z,18.91
2016-10-29T12:25:24.496Z,19.32
2016-10-29T12:26:34.478Z,19.63
2016-10-29T12:27:44.170Z,19.52
2016-10-29T12:28:54.456Z,19.49
2016-10-29T12:30:04.438Z,19.32
2016-10-29T12:31:14.739Z,19.25
2016-10-29T12:32:25.055Z,19.13
2016-10-29T12:33:35.353Z,19.06
2016-10-29T12:34:45.331Z,19.24
2016-10-29T12:35:55.621Z,19.52
2016-10-29T12:37:05.610Z,19.97
2016-10-29T12:38:15.930Z,20.22
2016-10-29T12:39:26.226Z,20.46
2016-10-29T12:40:36.548Z,20.48
2016-10-29T12:41:46.554Z,20.38
2016-10-29T12:42:56.913Z,20.29
2016-10-29T12:44:06.620Z,20.1
2016-10-29T12:45:16.915Z,20.1
2016-10-29T12:46:26.908Z,20.16
2016-10-29T12:47:36.897Z,20.01
2016-10-29T12:48:46.902Z,20.01
2016-10-29T12:49:56.301Z,20.02
2016-10-29T12:51:06.604Z,19.71
2016-10-29T12:52:16.265Z,19.37
2016-10-29T12:53:26.254Z,19.12
2016-10-29T12:54:36.276Z,18.96
2016-10-29T12:55:46.275Z,18.78
2016-10-29T12:56:56.582Z,18.71
2016-10-29T12:58:06.579Z,18.51
2016-10-29T12:59:16.602Z,18.5
2016-10-29T13:00:26.588Z,18.42
2016-10-29T13:01:36.592Z,18.86
2016-10-29T13:02:46.320Z,18.76
2016-10-29T13:03:56.347Z,18.47
2016-10-29T13:05:05.414Z,18.44
2016-10-29T13:06:16.081Z,18.27
2016-10-29T13:07:26.384Z,18.27
2016-10-29T13:08:36.685Z,18.16
2016-10-29T13:09:46.968Z,18.16
2016-10-29T13:10:56.343Z,18.26
2016-10-29T13:12:06.674Z,18.42
2016-10-29T13:13:16.350Z,18.27
2016-10-29T13:14:26.349Z,18.32
2016-10-29T13:15:36.334Z,18.41
2016-10-29T13:16:46.636Z,18.47
2016-10-29T13:17:56.942Z,18.49
2016-10-29T13:19:06.659Z,18.54
2016-10-29T13:20:16.948Z,18.69
2016-10-29T13:21:27.239Z,18.68
2016-10-29T13:22:36.919Z,18.71
2016-10-29T13:23:46.968Z,18.89
2016-10-29T13:24:56.973Z,18.97
2016-10-29T13:26:06.966Z,19.15
2016-10-29T13:27:16.967Z,19.23
2016-10-29T13:28:26.959Z,19.5
2016-10-29T13:29:36.651Z,19.61
2016-10-29T13:30:46.953Z,19.74
2016-10-29T13:31:56.932Z,19.78
2016-10-29T13:33:07.250Z,19.74
2016-10-29T13:34:17.241Z,19.79
2016-10-29T13:35:27.251Z,19.83
2016-10-29T13:36:37.540Z,19.45
2016-10-29T13:37:47.851Z,19.09
2016-10-29T13:38:57.834Z,18.94
2016-10-29T13:40:08.124Z,18.82
2016-10-29T13:41:18.447Z,18.75
2016-10-29T13:42:28.426Z,18.82
2016-10-29T13:43:38.711Z,18.63
2016-10-29T13:44:49.008Z,18.68
2016-10-29T13:45:59.053Z,18.63
2016-10-29T13:47:09.340Z,18.71
2016-10-29T13:48:19.347Z,18.78
2016-10-29T13:49:29.343Z,18.75
2016-10-29T13:50:39.626Z,18.78
2016-10-29T13:51:49.619Z,18.79
2016-10-29T13:52:59.279Z,18.84
2016-10-29T13:54:09.576Z,18.89
2016-10-29T13:55:19.886Z,18.86
2016-10-29T13:56:30.183Z,18.91
2016-10-29T13:57:40.491Z,18.91
2016-10-29T13:58:49.850Z,18.99
2016-10-29T14:00:00.139Z,18.97
2016-10-29T14:01:09.849Z,19.05
2016-10-29T14:02:20.177Z,19
2016-10-29T14:03:30.195Z,19.09
2016-10-29T14:04:40.502Z,18.99
2016-10-29T14:05:50.798Z,18.91
2016-10-29T14:07:01.149Z,18.89
2016-10-29T14:08:11.463Z,18.86
2016-10-29T14:09:21.457Z,18.76
2016-10-29T14:10:31.153Z,18.69
2016-10-29T14:11:41.456Z,18.5
2016-10-29T14:12:51.787Z,18.5
2016-10-29T14:14:01.780Z,18.44
2016-10-29T14:15:12.083Z,18.45
2016-10-29T14:16:22.377Z,18.29
2016-10-29T14:17:32.354Z,18.29
2016-10-29T14:18:42.641Z,18.23
2016-10-29T14:19:52.328Z,18.11
2016-10-29T14:21:02.325Z,18.11
2016-10-29T14:22:12.300Z,17.98
2016-10-29T14:23:22.616Z,17.92
2016-10-29T14:24:32.591Z,17.84
2016-10-29T14:25:42.935Z,17.83
2016-10-29T14:26:52.918Z,17.65
2016-10-29T14:28:03.220Z,17.65
2016-10-29T14:29:13.284Z,17.68
2016-10-29T14:30:23.287Z,17.68
2016-10-29T14:31:33.280Z,17.68
2016-10-29T14:32:43.561Z,17.66
2016-10-29T14:33:53.239Z,17.66
2016-10-29T14:35:03.255Z,17.46
2016-10-29T14:36:13.560Z,17.42
2016-10-29T14:37:23.865Z,17.4
2016-10-29T14:38:33.868Z,17.35
2016-10-29T14:39:44.177Z,17.31
2016-10-29T14:40:54.487Z,17.35
2016-10-29T14:42:04.775Z,17.47
2016-10-29T14:43:14.773Z,17.47
2016-10-29T14:44:24.437Z,17.45
2016-10-29T14:45:34.441Z,17.43
2016-10-29T14:46:44.775Z,17.43
2016-10-29T14:47:55.126Z,17.32
2016-10-29T14:49:05.459Z,17.35
2016-10-29T14:50:15.837Z,17.21
2016-10-29T14:51:25.845Z,17.15
2016-10-29T14:52:36.119Z,17.13
2016-10-29T14:53:46.108Z,17.02
2016-10-29T14:54:55.773Z,17.17
2016-10-29T14:56:06.075Z,17.12
2016-10-29T14:57:16.379Z,17.06
2016-10-29T14:58:25.753Z,17.13
2016-10-29T14:59:36.101Z,17.02
2016-10-29T15:00:46.410Z,17.05
2016-10-29T15:01:56.388Z,17
2016-10-29T15:03:06.072Z,16.97
2016-10-29T15:04:16.061Z,16.91
2016-10-29T15:05:26.116Z,16.82
2016-10-29T15:06:36.415Z,16.72
2016-10-29T15:07:46.428Z,16.69
2016-10-29T15:08:56.743Z,16.67
2016-10-29T15:10:07.066Z,16.59
2016-10-29T15:11:17.359Z,16.58
2016-10-29T15:12:27.396Z,16.45
2016-10-29T15:13:37.296Z,16.47
2016-10-29T15:14:47.342Z,16.37
2016-10-29T15:15:57.323Z,16.48
2016-10-29T15:17:07.025Z,16.34
2016-10-29T15:18:17.321Z,16.42
2016-10-29T15:19:27.618Z,16.29
2016-10-29T15:20:37.930Z,16.25
2016-10-29T15:21:47.631Z,16.26
2016-10-29T15:22:58.123Z,16.16
2016-10-29T15:24:08.119Z,16.13
2016-10-29T15:25:17.500Z,16.08
2016-10-29T15:26:27.793Z,16.07
2016-10-29T15:27:38.099Z,15.99
2016-10-29T15:28:48.376Z,15.96
2016-10-29T15:29:58.684Z,15.93
2016-10-29T15:31:09.070Z,15.92
2016-10-29T15:32:19.371Z,15.96
2016-10-29T15:33:29.671Z,15.99
2016-10-29T15:34:39.353Z,16.08
2016-10-29T15:35:49.039Z,15.98
2016-10-29T15:36:58.749Z,15.99
2016-10-29T15:38:09.024Z,16.02